world map with RWN marked

RWN - Airport

This information may not be accurate or current and is not valid for navigation or flight planning. No warranty of fitness for any purpose is made or implied.

flag of Rivneflag of Ukraine

Donate via PayPal

Additional information is available on the NEW Great Circle Mapper

Location
City:  Rovno, Rivne, Ukraine
ICAO / IATA:UKLR / RWN

Details
Type:Airport (Aerodrome, Airfield)
Use:Public/Civil
Latitude:50°36'26"N (50.607142)
Longitude:26°08'30"E (26.141622)
Datum:WGS 1984
Elevation:755 ft (230 m)
Runways:2
Longest:8615 × 138 ft (2626 × 42 m)

Time
Timezone:UTC+2 (DST+5)
Local Time:

Weather
METAR:UKLR  041400Z 29007MPS 9999 BKN019 01/M01 Q1025 NOSIG
TAF:UKLR  (expired)

Related Locations
Nearby:
Farthest:CHT: 11281 mi / 18155 km
Waitangi [Tuuta], CIT, NZ

Find:

   beyond  
but within

Other Information
Maps:
Sources:

  


 


Great Circle Mapper   Great Circle Mapper
Great Circle Mapper FAQ   Great Circle Mapper FAQ
  Karl's Home Page
KLSē   KLSē Home
   GC on Facebook
Airlines of the World   Airlines of the World
Donate via PayPal


Copyright © 2004-2019, Karl L. Swartz. All rights reserved.
All trademarks mentioned herein belong to their respective owners.

Please see credits for attribution and copyright information.

Karl Swartz <karl@kls2.com>
  Powered by FreeBSD
Valid HTML 4.01!
Labeled with ICRA
hCard Microformat
Geo Microformat